sensor_id;sensor_type;location;lat;lon;timestamp;temperature;humidity
6792;DHT22;3433;48.730;9.108;2024-03-23T00:54:34;12.20;99.60
6792;DHT22;3433;48.730;9.108;2024-03-23T00:57:22;12.30;99.10
6792;DHT22;3433;48.730;9.108;2024-03-23T01:00:08;12.40;99.40
6792;DHT22;3433;48.730;9.108;2024-03-23T01:02:56;12.30;99.60
6792;DHT22;3433;48.730;9.108;2024-03-23T01:05:43;12.30;99.70
6792;DHT22;3433;48.730;9.108;2024-03-23T01:08:30;12.30;99.90
6792;DHT22;3433;48.730;9.108;2024-03-23T01:11:18;12.60;99.20
6792;DHT22;3433;48.730;9.108;2024-03-23T01:14:04;12.60;99.30
6792;DHT22;3433;48.730;9.108;2024-03-23T01:16:51;12.60;99.40
6792;DHT22;3433;48.730;9.108;2024-03-23T01:19:39;12.60;99.50
6792;DHT22;3433;48.730;9.108;2024-03-23T01:22:27;12.60;99.30
6792;DHT22;3433;48.730;9.108;2024-03-23T01:25:13;12.60;99.40
6792;DHT22;3433;48.730;9.108;2024-03-23T01:28:02;12.50;99.80
6792;DHT22;3433;48.730;9.108;2024-03-23T01:30:48;12.50;99.70
6792;DHT22;3433;48.730;9.108;2024-03-23T01:33:35;12.30;99.90
6792;DHT22;3433;48.730;9.108;2024-03-23T01:36:22;12.20;99.90
6792;DHT22;3433;48.730;9.108;2024-03-23T01:39:09;12.20;99.90
6792;DHT22;3433;48.730;9.108;2024-03-23T01:41:55;12.30;99.90
6792;DHT22;3433;48.730;9.108;2024-03-23T01:44:43;12.40;99.90
6792;DHT22;3433;48.730;9.108;2024-03-23T01:47:30;12.50;99.90
6792;DHT22;3433;48.730;9.108;2024-03-23T01:50:17;12.50;99.90
6792;DHT22;3433;48.730;9.108;2024-03-23T01:53:04;12.40;99.90
6792;DHT22;3433;48.730;9.108;2024-03-23T01:55:52;12.50;99.90
6792;DHT22;3433;48.730;9.108;2024-03-23T01:58:39;12.40;99.90
6792;DHT22;3433;48.730;9.108;2024-03-23T02:01:27;12.50;99.90
6792;DHT22;3433;48.730;9.108;2024-03-23T02:04:14;12.50;99.90
6792;DHT22;3433;48.730;9.108;2024-03-23T02:07:01;12.50;99.90
6792;DHT22;3433;48.730;9.108;2024-03-23T02:09:47;12.30;99.90
6792;DHT22;3433;48.730;9.108;2024-03-23T02:12:34;12.20;99.90
6792;DHT22;3433;48.730;9.108;2024-03-23T02:15:20;12.10;99.90
6792;DHT22;3433;48.730;9.108;2024-03-23T02:18:09;12.10;99.90
6792;DHT22;3433;48.730;9.108;2024-03-23T02:20:55;12.30;99.90
6792;DHT22;3433;48.730;9.108;2024-03-23T02:23:44;12.30;99.90
6792;DHT22;3433;48.730;9.108;2024-03-23T02:26:30;12.30;99.90
6792;DHT22;3433;48.730;9.108;2024-03-23T02:29:17;12.40;99.90
6792;DHT22;3433;48.730;9.108;2024-03-23T02:32:05;12.40;99.90
6792;DHT22;3433;48.730;9.108;2024-03-23T02:34:54;12.40;99.90
6792;DHT22;3433;48.730;9.108;2024-03-23T02:37:41;12.30;99.90
6792;DHT22;3433;48.730;9.108;2024-03-23T02:40:29;12.30;99.90
6792;DHT22;3433;48.730;9.108;2024-03-23T02:43:15;12.50;99.90
6792;DHT22;3433;48.730;9.108;2024-03-23T02:46:03;12.70;99.90
6792;DHT22;3433;48.730;9.108;2024-03-23T02:48:50;12.50;99.90
6792;DHT22;3433;48.730;9.108;2024-03-23T02:51:37;12.60;99.90
6792;DHT22;3433;48.730;9.108;2024-03-23T02:54:24;12.60;99.90
6792;DHT22;3433;48.730;9.108;2024-03-23T02:57:12;12.60;99.90
6792;DHT22;3433;48.730;9.108;2024-03-23T02:59:59;12.60;99.90
6792;DHT22;3433;48.730;9.108;2024-03-23T03:02:45;12.60;99.90
6792;DHT22;3433;48.730;9.108;2024-03-23T03:05:32;12.60;99.90
6792;DHT22;3433;48.730;9.108;2024-03-23T03:08:18;12.40;99.90
6792;DHT22;3433;48.730;9.108;2024-03-23T03:11:06;12.30;99.90
6792;DHT22;3433;48.730;9.108;2024-03-23T03:13:53;12.50;99.90
6792;DHT22;3433;48.730;9.108;2024-03-23T03:16:40;12.40;99.90
6792;DHT22;3433;48.730;9.108;2024-03-23T03:19:27;12.40;99.90
6792;DHT22;3433;48.730;9.108;2024-03-23T03:22:14;12.50;99.90
6792;DHT22;3433;48.730;9.108;2024-03-23T03:25:02;12.30;99.90
6792;DHT22;3433;48.730;9.108;2024-03-23T03:27:48;12.30;99.90
6792;DHT22;3433;48.730;9.108;2024-03-23T03:30:37;12.40;99.90
6792;DHT22;3433;48.730;9.108;2024-03-23T03:33:23;12.40;99.90
6792;DHT22;3433;48.730;9.108;2024-03-23T03:36:10;12.40;99.90
6792;DHT22;3433;48.730;9.108;2024-03-23T03:38:56;12.40;99.90
6792;DHT22;3433;48.730;9.108;2024-03-23T03:41:43;12.30;99.90
6792;DHT22;3433;48.730;9.108;2024-03-23T03:44:30;12.30;99.90
6792;DHT22;3433;48.730;9.108;2024-03-23T03:47:18;12.50;99.90
6792;DHT22;3433;48.730;9.108;2024-03-23T03:50:05;12.40;99.90
6792;DHT22;3433;48.730;9.108;2024-03-23T03:52:52;12.30;99.90
6792;DHT22;3433;48.730;9.108;2024-03-23T03:55:40;12.40;99.90
6792;DHT22;3433;48.730;9.108;2024-03-23T03:58:26;12.40;99.90
6792;DHT22;3433;48.730;9.108;2024-03-23T04:01:13;12.40;99.90
6792;DHT22;3433;48.730;9.108;2024-03-23T04:04:01;12.70;99.90
6792;DHT22;3433;48.730;9.108;2024-03-23T04:06:48;13.00;99.90
6792;DHT22;3433;48.730;9.108;2024-03-23T04:09:34;13.10;99.90
6792;DHT22;3433;48.730;9.108;2024-03-23T04:12:22;13.20;99.90
6792;DHT22;3433;48.730;9.108;2024-03-23T04:15:09;13.20;99.90
6792;DHT22;3433;48.730;9.108;2024-03-23T04:17:56;12.90;99.90
6792;DHT22;3433;48.730;9.108;2024-03-23T04:20:44;12.70;99.90
6792;DHT22;3433;48.730;9.108;2024-03-23T04:23:31;12.80;99.90
6792;DHT22;3433;48.730;9.108;2024-03-23T04:26:17;12.70;99.90
6792;DHT22;3433;48.730;9.108;2024-03-23T04:29:04;12.90;99.90
6792;DHT22;3433;48.730;9.108;2024-03-23T04:31:50;12.90;99.90
6792;DHT22;3433;48.730;9.108;2024-03-23T04:34:37;12.70;99.90
6792;DHT22;3433;48.730;9.108;2024-03-23T04:37:25;12.60;99.90
6792;DHT22;3433;48.730;9.108;2024-03-23T04:40:12;12.70;99.90
6792;DHT22;3433;48.730;9.108;2024-03-23T04:42:59;12.70;99.90
6792;DHT22;3433;48.730;9.108;2024-03-23T04:45:47;12.80;99.90
6792;DHT22;3433;48.730;9.108;2024-03-23T04:48:34;12.90;99.90
6792;DHT22;3433;48.730;9.108;2024-03-23T04:51:23;12.90;99.90
6792;DHT22;3433;48.730;9.108;2024-03-23T04:54:12;13.00;99.90
6792;DHT22;3433;48.730;9.108;2024-03-23T04:56:59;13.00;99.90
6792;DHT22;3433;48.730;9.108;2024-03-23T04:59:46;12.90;99.90
6792;DHT22;3433;48.730;9.108;2024-03-23T05:02:33;12.90;99.90
6792;DHT22;3433;48.730;9.108;2024-03-23T05:05:20;12.80;99.90
6792;DHT22;3433;48.730;9.108;2024-03-23T05:08:07;12.80;99.90
6792;DHT22;3433;48.730;9.108;2024-03-23T05:10:55;12.70;99.90
6792;DHT22;3433;48.730;9.108;2024-03-23T05:13:42;12.60;99.90
6792;DHT22;3433;48.730;9.108;2024-03-23T05:16:29;12.60;99.90
6792;DHT22;3433;48.730;9.108;2024-03-23T05:19:15;12.60;99.90
6792;DHT22;3433;48.730;9.108;2024-03-23T05:22:03;12.40;99.90
6792;DHT22;3433;48.730;9.108;2024-03-23T05:24:49;12.30;99.90
6792;DHT22;3433;48.730;9.108;2024-03-23T05:27:37;12.20;99.90
6792;DHT22;3433;48.730;9.108;2024-03-23T05:30:24;12.10;99.90
6792;DHT22;3433;48.730;9.108;2024-03-23T05:33:11;12.00;99.90
6792;DHT22;3433;48.730;9.108;2024-03-23T05:35:58;11.90;99.90
6792;DHT22;3433;48.730;9.108;2024-03-23T05:38:46;11.70;99.90
6792;DHT22;3433;48.730;9.108;2024-03-23T05:41:32;11.70;99.90
6792;DHT22;3433;48.730;9.108;2024-03-23T05:44:23;11.60;99.90
6792;DHT22;3433;48.730;9.108;2024-03-23T05:47:10;11.80;99.90
6792;DHT22;3433;48.730;9.108;2024-03-23T05:49:56;11.90;99.90
6792;DHT22;3433;48.730;9.108;2024-03-23T05:52:44;11.70;99.90
6792;DHT22;3433;48.730;9.108;2024-03-23T05:55:30;11.70;99.90
6792;DHT22;3433;48.730;9.108;2024-03-23T05:58:18;11.70;99.90
6792;DHT22;3433;48.730;9.108;2024-03-23T06:01:05;11.60;99.90
6792;DHT22;3433;48.730;9.108;2024-03-23T06:03:53;11.30;99.90
6792;DHT22;3433;48.730;9.108;2024-03-23T06:06:39;11.00;99.90
6792;DHT22;3433;48.730;9.108;2024-03-23T06:09:27;10.90;99.90
6792;DHT22;3433;48.730;9.108;2024-03-23T06:12:13;10.80;99.90
6792;DHT22;3433;48.730;9.108;2024-03-23T06:15:00;10.60;99.90
6792;DHT22;3433;48.730;9.108;2024-03-23T06:17:48;10.60;99.90
6792;DHT22;3433;48.730;9.108;2024-03-23T06:20:35;10.50;99.90
6792;DHT22;3433;48.730;9.108;2024-03-23T06:23:21;10.30;99.90
6792;DHT22;3433;48.730;9.108;2024-03-23T06:26:08;10.10;99.90
6792;DHT22;3433;48.730;9.108;2024-03-23T06:28:56;10.00;99.90
6792;DHT22;3433;48.730;9.108;2024-03-23T06:31:43;10.00;99.90
6792;DHT22;3433;48.730;9.108;2024-03-23T06:34:30;9.90;99.90
6792;DHT22;3433;48.730;9.108;2024-03-23T06:37:17;10.10;99.90
6792;DHT22;3433;48.730;9.108;2024-03-23T06:40:05;10.20;99.90
6792;DHT22;3433;48.730;9.108;2024-03-23T06:42:55;10.10;99.90
6792;DHT22;3433;48.730;9.108;2024-03-23T06:45:41;10.10;99.90
6792;DHT22;3433;48.730;9.108;2024-03-23T06:48:28;10.10;99.90
6792;DHT22;3433;48.730;9.108;2024-03-23T06:51:17;10.10;99.90
6792;DHT22;3433;48.730;9.108;2024-03-23T06:54:03;10.30;99.90
6792;DHT22;3433;48.730;9.108;2024-03-23T06:56:51;10.20;99.90
6792;DHT22;3433;48.730;9.108;2024-03-23T06:59:37;9.90;99.90
6792;DHT22;3433;48.730;9.108;2024-03-23T07:02:24;9.90;99.90
6792;DHT22;3433;48.730;9.108;2024-03-23T07:05:10;10.00;99.90
6792;DHT22;3433;48.730;9.108;2024-03-23T07:07:59;10.20;99.90
6792;DHT22;3433;48.730;9.108;2024-03-23T07:10:45;10.20;99.90
6792;DHT22;3433;48.730;9.108;2024-03-23T07:13:32;10.30;99.90
6792;DHT22;3433;48.730;9.108;2024-03-23T07:16:19;10.20;99.90
6792;DHT22;3433;48.730;9.108;2024-03-23T07:19:06;10.20;99.90
6792;DHT22;3433;48.730;9.108;2024-03-23T07:21:52;10.40;99.90
6792;DHT22;3433;48.730;9.108;2024-03-23T07:24:41;10.50;99.90
6792;DHT22;3433;48.730;9.108;2024-03-23T07:27:27;10.50;99.90
6792;DHT22;3433;48.730;9.108;2024-03-23T07:30:14;10.60;99.90
6792;DHT22;3433;48.730;9.108;2024-03-23T07:33:01;10.70;99.90
6792;DHT22;3433;48.730;9.108;2024-03-23T07:35:48;10.70;99.90
6792;DHT22;3433;48.730;9.108;2024-03-23T07:38:35;10.40;99.90
6792;DHT22;3433;48.730;9.108;2024-03-23T07:41:22;10.10;99.90
6792;DHT22;3433;48.730;9.108;2024-03-23T07:44:10;10.10;99.90
6792;DHT22;3433;48.730;9.108;2024-03-23T07:46:56;10.00;99.90
6792;DHT22;3433;48.730;9.108;2024-03-23T07:49:43;10.20;99.90
6792;DHT22;3433;48.730;9.108;2024-03-23T07:52:29;10.00;99.90
6792;DHT22;3433;48.730;9.108;2024-03-23T07:55:16;10.20;99.90
6792;DHT22;3433;48.730;9.108;2024-03-23T07:58:04;10.10;99.90
6792;DHT22;3433;48.730;9.108;2024-03-23T08:00:52;10.10;99.90
6792;DHT22;3433;48.730;9.108;2024-03-23T08:03:40;10.20;99.90
6792;DHT22;3433;48.730;9.108;2024-03-23T08:06:27;10.10;99.90
6792;DHT22;3433;48.730;9.108;2024-03-23T08:09:13;10.30;99.90
6792;DHT22;3433;48.730;9.108;2024-03-23T08:12:00;10.10;99.90
6792;DHT22;3433;48.730;9.108;2024-03-23T08:14:49;10.00;99.90
6792;DHT22;3433;48.730;9.108;2024-03-23T08:17:36;10.10;99.90
6792;DHT22;3433;48.730;9.108;2024-03-23T08:20:22;10.10;99.90
6792;DHT22;3433;48.730;9.108;2024-03-23T08:23:09;9.90;99.90
6792;DHT22;3433;48.730;9.108;2024-03-23T08:25:58;10.00;99.90
6792;DHT22;3433;48.730;9.108;2024-03-23T08:28:45;10.00;99.90
6792;DHT22;3433;48.730;9.108;2024-03-23T08:31:32;10.00;99.90
6792;DHT22;3433;48.730;9.108;2024-03-23T08:34:20;10.10;99.90
6792;DHT22;3433;48.730;9.108;2024-03-23T08:37:06;10.10;99.90
6792;DHT22;3433;48.730;9.108;2024-03-23T08:39:53;9.90;99.90
6792;DHT22;3433;48.730;9.108;2024-03-23T08:42:39;10.10;99.90
6792;DHT22;3433;48.730;9.108;2024-03-23T08:45:27;10.00;99.90
6792;DHT22;3433;48.730;9.108;2024-03-23T08:48:15;10.00;99.90
6792;DHT22;3433;48.730;9.108;2024-03-23T08:51:02;10.10;99.90
6792;DHT22;3433;48.730;9.108;2024-03-23T08:53:49;10.30;99.90
6792;DHT22;3433;48.730;9.108;2024-03-23T08:56:36;10.60;99.90
6792;DHT22;3433;48.730;9.108;2024-03-23T08:59:23;10.60;99.90
6792;DHT22;3433;48.730;9.108;2024-03-23T09:02:10;10.70;99.90
6792;DHT22;3433;48.730;9.108;2024-03-23T09:04:58;10.30;99.90
6792;DHT22;3433;48.730;9.108;2024-03-23T09:07:50;10.30;99.90
6792;DHT22;3433;48.730;9.108;2024-03-23T09:10:38;10.60;99.90
6792;DHT22;3433;48.730;9.108;2024-03-23T09:13:25;10.50;99.90
6792;DHT22;3433;48.730;9.108;2024-03-23T09:16:12;10.10;99.90
6792;DHT22;3433;48.730;9.108;2024-03-23T09:18:58;10.20;99.90
6792;DHT22;3433;48.730;9.108;2024-03-23T09:21:47;10.10;99.90
6792;DHT22;3433;48.730;9.108;2024-03-23T09:24:33;10.30;99.90
6792;DHT22;3433;48.730;9.108;2024-03-23T09:27:20;10.30;99.90
6792;DHT22;3433;48.730;9.108;2024-03-23T09:30:08;10.10;99.90
6792;DHT22;3433;48.730;9.108;2024-03-23T09:32:55;10.00;99.90
6792;DHT22;3433;48.730;9.108;2024-03-23T09:35:43;10.10;99.90
6792;DHT22;3433;48.730;9.108;2024-03-23T09:38:32;10.10;99.90
6792;DHT22;3433;48.730;9.108;2024-03-23T09:41:19;10.40;99.90
6792;DHT22;3433;48.730;9.108;2024-03-23T09:44:07;10.40;99.90
6792;DHT22;3433;48.730;9.108;2024-03-23T09:46:54;10.20;99.90
6792;DHT22;3433;48.730;9.108;2024-03-23T09:49:41;10.30;99.90
6792;DHT22;3433;48.730;9.108;2024-03-23T09:52:28;10.20;99.90
6792;DHT22;3433;48.730;9.108;2024-03-23T09:55:16;10.10;99.90
6792;DHT22;3433;48.730;9.108;2024-03-23T09:58:03;10.30;99.90
6792;DHT22;3433;48.730;9.108;2024-03-23T10:00:50;10.40;99.90
6792;DHT22;3433;48.730;9.108;2024-03-23T10:03:44;10.30;99.90
6792;DHT22;3433;48.730;9.108;2024-03-23T10:06:30;10.40;99.90
6792;DHT22;3433;48.730;9.108;2024-03-23T10:09:17;10.40;99.90
6792;DHT22;3433;48.730;9.108;2024-03-23T10:12:09;10.50;99.90
6792;DHT22;3433;48.730;9.108;2024-03-23T10:14:58;10.60;99.90
6792;DHT22;3433;48.730;9.108;2024-03-23T10:17:45;10.70;99.90
6792;DHT22;3433;48.730;9.108;2024-03-23T10:20:32;10.70;99.90
6792;DHT22;3433;48.730;9.108;2024-03-23T10:23:18;10.70;99.90
6792;DHT22;3433;48.730;9.108;2024-03-23T10:26:17;10.70;99.90
6792;DHT22;3433;48.730;9.108;2024-03-23T10:29:06;10.80;99.30
6792;DHT22;3433;48.730;9.108;2024-03-23T10:31:54;11.10;98.80
6792;DHT22;3433;48.730;9.108;2024-03-23T10:34:44;11.20;99.10
6792;DHT22;3433;48.730;9.108;2024-03-23T10:37:31;11.20;98.80
6792;DHT22;3433;48.730;9.108;2024-03-23T10:40:18;11.20;99.50
6792;DHT22;3433;48.730;9.108;2024-03-23T10:43:05;11.20;98.80
6792;DHT22;3433;48.730;9.108;2024-03-23T10:45:54;11.30;98.90
6792;DHT22;3433;48.730;9.108;2024-03-23T10:48:42;11.10;98.30
6792;DHT22;3433;48.730;9.108;2024-03-23T10:51:29;11.00;99.40
6792;DHT22;3433;48.730;9.108;2024-03-23T10:54:16;10.60;99.90
6792;DHT22;3433;48.730;9.108;2024-03-23T10:57:06;10.30;99.90
6792;DHT22;3433;48.730;9.108;2024-03-23T10:59:57;9.80;99.90
6792;DHT22;3433;48.730;9.108;2024-03-23T11:02:47;9.30;99.90
6792;DHT22;3433;48.730;9.108;2024-03-23T11:05:34;8.90;99.90
6792;DHT22;3433;48.730;9.108;2024-03-23T11:08:30;9.40;99.90
6792;DHT22;3433;48.730;9.108;2024-03-23T11:11:18;9.70;99.90
6792;DHT22;3433;48.730;9.108;2024-03-23T11:14:21;9.70;99.90
6792;DHT22;3433;48.730;9.108;2024-03-23T11:17:09;9.70;99.90
6792;DHT22;3433;48.730;9.108;2024-03-23T11:19:58;9.80;99.90
6792;DHT22;3433;48.730;9.108;2024-03-23T11:22:46;9.80;99.90
6792;DHT22;3433;48.730;9.108;2024-03-23T11:25:33;9.80;99.90
6792;DHT22;3433;48.730;9.108;2024-03-23T11:28:20;10.10;99.90
6792;DHT22;3433;48.730;9.108;2024-03-23T11:31:09;10.10;99.90
6792;DHT22;3433;48.730;9.108;2024-03-23T11:34:03;10.40;99.90
6792;DHT22;3433;48.730;9.108;2024-03-23T11:37:03;10.30;99.90
6792;DHT22;3433;48.730;9.108;2024-03-23T11:39:51;10.50;99.90
6792;DHT22;3433;48.730;9.108;2024-03-23T11:42:37;10.50;99.90
6792;DHT22;3433;48.730;9.108;2024-03-23T11:45:24;10.80;99.90
6792;DHT22;3433;48.730;9.108;2024-03-23T11:48:12;11.10;99.90
6792;DHT22;3433;48.730;9.108;2024-03-23T11:50:59;10.90;99.90
6792;DHT22;3433;48.730;9.108;2024-03-23T11:53:47;10.70;99.90
6792;DHT22;3433;48.730;9.108;2024-03-23T11:56:34;10.80;99.90
6792;DHT22;3433;48.730;9.108;2024-03-23T11:59:31;10.70;99.90
6792;DHT22;3433;48.730;9.108;2024-03-23T12:02:18;10.80;99.90
6792;DHT22;3433;48.730;9.108;2024-03-23T12:05:14;10.60;99.90
6792;DHT22;3433;48.730;9.108;2024-03-23T12:08:32;10.20;99.90
6792;DHT22;3433;48.730;9.108;2024-03-23T12:11:21;10.10;99.90
6792;DHT22;3433;48.730;9.108;2024-03-23T12:14:08;10.10;99.90
6792;DHT22;3433;48.730;9.108;2024-03-23T12:16:55;10.10;99.90
6792;DHT22;3433;48.730;9.108;2024-03-23T12:19:43;10.30;99.90
6792;DHT22;3433;48.730;9.108;2024-03-23T12:22:31;10.40;99.90
6792;DHT22;3433;48.730;9.108;2024-03-23T12:25:18;10.50;99.90
6792;DHT22;3433;48.730;9.108;2024-03-23T12:28:07;10.40;99.90
6792;DHT22;3433;48.730;9.108;2024-03-23T12:30:54;10.60;99.90
6792;DHT22;3433;48.730;9.108;2024-03-23T12:33:41;10.40;99.90
6792;DHT22;3433;48.730;9.108;2024-03-23T12:36:28;10.40;98.70
6792;DHT22;3433;48.730;9.108;2024-03-23T12:39:15;10.30;99.90
6792;DHT22;3433;48.730;9.108;2024-03-23T12:42:02;10.50;99.90
6792;DHT22;3433;48.730;9.108;2024-03-23T12:44:51;10.50;99.50
6792;DHT22;3433;48.730;9.108;2024-03-23T12:47:38;10.50;99.80
6792;DHT22;3433;48.730;9.108;2024-03-23T12:50:25;10.20;99.10
6792;DHT22;3433;48.730;9.108;2024-03-23T12:53:11;10.20;99.70
6792;DHT22;3433;48.730;9.108;2024-03-23T12:55:58;10.30;99.90
6792;DHT22;3433;48.730;9.108;2024-03-23T12:58:45;10.30;99.80
6792;DHT22;3433;48.730;9.108;2024-03-23T13:01:36;10.10;99.90
6792;DHT22;3433;48.730;9.108;2024-03-23T13:04:22;10.10;99.70
6792;DHT22;3433;48.730;9.108;2024-03-23T13:07:09;10.30;99.90
6792;DHT22;3433;48.730;9.108;2024-03-23T13:09:55;10.40;99.90
6792;DHT22;3433;48.730;9.108;2024-03-23T13:12:43;10.30;99.90
6792;DHT22;3433;48.730;9.108;2024-03-23T13:15:29;10.20;99.90
6792;DHT22;3433;48.730;9.108;2024-03-23T13:18:18;10.10;99.90
6792;DHT22;3433;48.730;9.108;2024-03-23T13:21:04;10.10;99.70
6792;DHT22;3433;48.730;9.108;2024-03-23T13:23:51;9.90;99.90
6792;DHT22;3433;48.730;9.108;2024-03-23T13:26:38;9.90;99.80
6792;DHT22;3433;48.730;9.108;2024-03-23T13:29:25;9.90;98.50
6792;DHT22;3433;48.730;9.108;2024-03-23T13:32:11;10.00;98.10
6792;DHT22;3433;48.730;9.108;2024-03-23T13:35:00;9.80;96.50
6792;DHT22;3433;48.730;9.108;2024-03-23T13:37:47;9.50;96.10
6792;DHT22;3433;48.730;9.108;2024-03-23T13:40:34;9.90;97.60
6792;DHT22;3433;48.730;9.108;2024-03-23T13:43:23;10.00;95.00
6792;DHT22;3433;48.730;9.108;2024-03-23T13:46:10;10.30;95.50
6792;DHT22;3433;48.730;9.108;2024-03-23T13:48:57;10.50;95.10
6792;DHT22;3433;48.730;9.108;2024-03-23T13:51:47;10.40;95.00
6792;DHT22;3433;48.730;9.108;2024-03-23T13:54:34;10.30;95.90
6792;DHT22;3433;48.730;9.108;2024-03-23T13:57:21;10.70;96.90
6792;DHT22;3433;48.730;9.108;2024-03-23T14:00:09;10.70;96.70
6792;DHT22;3433;48.730;9.108;2024-03-23T14:02:57;10.70;97.10
6792;DHT22;3433;48.730;9.108;2024-03-23T14:05:43;10.40;96.40
6792;DHT22;3433;48.730;9.108;2024-03-23T14:08:32;10.30;97.50
6792;DHT22;3433;48.730;9.108;2024-03-23T14:11:19;10.20;99.90
6792;DHT22;3433;48.730;9.108;2024-03-23T14:14:06;10.10;98.80
6792;DHT22;3433;48.730;9.108;2024-03-23T14:16:52;9.90;99.90
6792;DHT22;3433;48.730;9.108;2024-03-23T14:19:40;9.90;99.90
6792;DHT22;3433;48.730;9.108;2024-03-23T14:22:26;9.90;99.90
6792;DHT22;3433;48.730;9.108;2024-03-23T14:25:15;10.10;99.90
6792;DHT22;3433;48.730;9.108;2024-03-23T14:28:02;10.00;99.90
6792;DHT22;3433;48.730;9.108;2024-03-23T14:30:49;10.20;99.90
6792;DHT22;3433;48.730;9.108;2024-03-23T14:33:36;10.40;99.90
6792;DHT22;3433;48.730;9.108;2024-03-23T14:36:23;10.50;99.90
6792;DHT22;3433;48.730;9.108;2024-03-23T14:39:10;10.40;99.90
6792;DHT22;3433;48.730;9.108;2024-03-23T14:42:00;10.40;99.90
6792;DHT22;3433;48.730;9.108;2024-03-23T14:44:47;10.40;99.90
6792;DHT22;3433;48.730;9.108;2024-03-23T14:47:33;10.50;99.90
6792;DHT22;3433;48.730;9.108;2024-03-23T14:50:20;10.40;99.90
6792;DHT22;3433;48.730;9.108;2024-03-23T14:53:07;10.40;99.90
6792;DHT22;3433;48.730;9.108;2024-03-23T14:55:54;10.20;99.90
6792;DHT22;3433;48.730;9.108;2024-03-23T14:58:42;10.10;99.90
6792;DHT22;3433;48.730;9.108;2024-03-23T15:01:31;9.90;99.90
6792;DHT22;3433;48.730;9.108;2024-03-23T15:04:17;9.60;99.90
6792;DHT22;3433;48.730;9.108;2024-03-23T15:07:05;9.50;99.90
6792;DHT22;3433;48.730;9.108;2024-03-23T15:09:51;9.30;99.90
6792;DHT22;3433;48.730;9.108;2024-03-23T15:12:39;9.20;99.90
6792;DHT22;3433;48.730;9.108;2024-03-23T15:15:28;9.30;99.90
6792;DHT22;3433;48.730;9.108;2024-03-23T15:18:14;9.30;99.90
6792;DHT22;3433;48.730;9.108;2024-03-23T15:21:03;9.40;99.90
6792;DHT22;3433;48.730;9.108;2024-03-23T15:23:51;9.70;99.90
6792;DHT22;3433;48.730;9.108;2024-03-23T15:26:39;9.90;99.90
6792;DHT22;3433;48.730;9.108;2024-03-23T15:29:25;10.30;99.90
6792;DHT22;3433;48.730;9.108;2024-03-23T15:32:14;10.60;99.90
6792;DHT22;3433;48.730;9.108;2024-03-23T15:35:02;10.80;99.90
6792;DHT22;3433;48.730;9.108;2024-03-23T15:37:54;10.80;99.90
6792;DHT22;3433;48.730;9.108;2024-03-23T15:40:40;11.30;99.90
6792;DHT22;3433;48.730;9.108;2024-03-23T15:43:27;11.30;99.90
6792;DHT22;3433;48.730;9.108;2024-03-23T15:46:14;11.00;99.90
6792;DHT22;3433;48.730;9.108;2024-03-23T15:49:03;11.10;99.90
6792;DHT22;3433;48.730;9.108;2024-03-23T15:51:50;10.60;99.90
6792;DHT22;3433;48.730;9.108;2024-03-23T15:54:36;10.10;99.90
6792;DHT22;3433;48.730;9.108;2024-03-23T15:57:23;9.70;99.90
6792;DHT22;3433;48.730;9.108;2024-03-23T16:00:11;9.80;99.90
6792;DHT22;3433;48.730;9.108;2024-03-23T16:02:59;9.70;99.90
6792;DHT22;3433;48.730;9.108;2024-03-23T16:05:51;9.90;99.90
6792;DHT22;3433;48.730;9.108;2024-03-23T16:08:38;9.90;99.90
6792;DHT22;3433;48.730;9.108;2024-03-23T16:11:24;9.60;99.90
6792;DHT22;3433;48.730;9.108;2024-03-23T16:14:12;9.60;99.90
6792;DHT22;3433;48.730;9.108;2024-03-23T16:16:58;9.60;99.90
6792;DHT22;3433;48.730;9.108;2024-03-23T16:19:45;9.50;99.90
6792;DHT22;3433;48.730;9.108;2024-03-23T16:22:33;9.30;99.90
6792;DHT22;3433;48.730;9.108;2024-03-23T16:25:20;9.30;99.90
6792;DHT22;3433;48.730;9.108;2024-03-23T16:28:06;9.20;99.90
6792;DHT22;3433;48.730;9.108;2024-03-23T16:30:55;9.20;99.90
6792;DHT22;3433;48.730;9.108;2024-03-23T16:33:41;9.00;99.90
6792;DHT22;3433;48.730;9.108;2024-03-23T16:36:28;8.80;99.90
6792;DHT22;3433;48.730;9.108;2024-03-23T16:39:16;8.70;99.90
6792;DHT22;3433;48.730;9.108;2024-03-23T16:42:03;8.60;99.90
6792;DHT22;3433;48.730;9.108;2024-03-23T16:44:50;8.70;99.90
6792;DHT22;3433;48.730;9.108;2024-03-23T16:47:38;8.70;99.90
6792;DHT22;3433;48.730;9.108;2024-03-23T16:50:26;8.50;99.90
6792;DHT22;3433;48.730;9.108;2024-03-23T16:53:13;8.60;99.90
6792;DHT22;3433;48.730;9.108;2024-03-23T16:56:02;8.90;99.90
6792;DHT22;3433;48.730;9.108;2024-03-23T16:58:52;8.80;99.90
6792;DHT22;3433;48.730;9.108;2024-03-23T17:01:39;8.80;99.90
6792;DHT22;3433;48.730;9.108;2024-03-23T17:04:25;8.80;99.90
6792;DHT22;3433;48.730;9.108;2024-03-23T17:07:13;8.80;99.90
6792;DHT22;3433;48.730;9.108;2024-03-23T17:09:59;8.70;99.90
6792;DHT22;3433;48.730;9.108;2024-03-23T17:12:48;8.80;99.90
6792;DHT22;3433;48.730;9.108;2024-03-23T17:15:42;8.90;99.90
6792;DHT22;3433;48.730;9.108;2024-03-23T17:18:29;8.70;99.90
6792;DHT22;3433;48.730;9.108;2024-03-23T17:21:15;8.50;99.90
6792;DHT22;3433;48.730;9.108;2024-03-23T17:24:03;8.40;99.90
6792;DHT22;3433;48.730;9.108;2024-03-23T17:26:49;8.40;99.90
6792;DHT22;3433;48.730;9.108;2024-03-23T17:29:38;8.40;99.90
6792;DHT22;3433;48.730;9.108;2024-03-23T17:32:27;8.30;99.90
6792;DHT22;3433;48.730;9.108;2024-03-23T17:35:14;8.50;99.90
6792;DHT22;3433;48.730;9.108;2024-03-23T17:38:01;8.80;99.90
6792;DHT22;3433;48.730;9.108;2024-03-23T17:40:55;8.90;99.90
6792;DHT22;3433;48.730;9.108;2024-03-23T17:43:44;9.00;99.90
6792;DHT22;3433;48.730;9.108;2024-03-23T17:46:34;8.90;99.90
6792;DHT22;3433;48.730;9.108;2024-03-23T17:49:20;8.10;99.90
6792;DHT22;3433;48.730;9.108;2024-03-23T17:52:10;7.40;99.90
6792;DHT22;3433;48.730;9.108;2024-03-23T17:55:00;7.20;99.90
6792;DHT22;3433;48.730;9.108;2024-03-23T17:57:47;7.20;99.90
6792;DHT22;3433;48.730;9.108;2024-03-23T18:00:34;7.40;99.90
6792;DHT22;3433;48.730;9.108;2024-03-23T18:03:22;7.60;99.90
6792;DHT22;3433;48.730;9.108;2024-03-23T18:06:09;7.40;99.90
6792;DHT22;3433;48.730;9.108;2024-03-23T18:08:55;7.20;99.90
6792;DHT22;3433;48.730;9.108;2024-03-23T18:11:43;7.40;99.90
6792;DHT22;3433;48.730;9.108;2024-03-23T18:14:30;7.50;99.90
6792;DHT22;3433;48.730;9.108;2024-03-23T18:17:17;7.50;99.90
6792;DHT22;3433;48.730;9.108;2024-03-23T18:20:06;7.40;99.90
6792;DHT22;3433;48.730;9.108;2024-03-23T18:22:55;7.30;99.90
6792;DHT22;3433;48.730;9.108;2024-03-23T18:25:41;6.90;99.90
6792;DHT22;3433;48.730;9.108;2024-03-23T18:28:36;6.70;99.90
6792;DHT22;3433;48.730;9.108;2024-03-23T18:31:23;6.70;99.90
6792;DHT22;3433;48.730;9.108;2024-03-23T18:34:10;6.70;99.90
6792;DHT22;3433;48.730;9.108;2024-03-23T18:36:58;6.80;99.90
6792;DHT22;3433;48.730;9.108;2024-03-23T18:39:45;6.80;99.90
6792;DHT22;3433;48.730;9.108;2024-03-23T18:42:32;6.90;99.90
6792;DHT22;3433;48.730;9.108;2024-03-23T18:45:19;6.70;99.90
6792;DHT22;3433;48.730;9.108;2024-03-23T18:48:07;6.70;99.90
6792;DHT22;3433;48.730;9.108;2024-03-23T18:50:54;6.90;99.90
6792;DHT22;3433;48.730;9.108;2024-03-23T18:53:42;6.80;99.90
6792;DHT22;3433;48.730;9.108;2024-03-23T18:56:29;6.60;99.90
6792;DHT22;3433;48.730;9.108;2024-03-23T18:59:16;6.40;99.90
6792;DHT22;3433;48.730;9.108;2024-03-23T19:02:03;6.50;99.90
6792;DHT22;3433;48.730;9.108;2024-03-23T19:04:50;6.70;99.90
6792;DHT22;3433;48.730;9.108;2024-03-23T19:07:39;6.80;99.90
6792;DHT22;3433;48.730;9.108;2024-03-23T19:10:26;7.00;99.90
6792;DHT22;3433;48.730;9.108;2024-03-23T19:13:14;7.00;99.90